Spring Valley, Illinois
Current Conditions -  °F | °C
As of 7:15 AM on Thursday 27 Nov 2014 (Local Time) from KVYS Reporting Station
Overcast Overcast  
Wind Chill: 14°   Ceiling: 2200
Heat Index: 25°   Visibility: 7mi
Dew Point: 21°   Wind: 12mph
Humidity: 87%   Direction: 290°WNW
Pressure: 30.35"   Gusts: NA
Location:  41.33°N, 89.2°W
Report Text: KVYS 271315Z AUTO 29010KT 7SM OVC022 M04/M06 A3035 RMK AO2 T10411060
Loading
Personal Weather Stations






























Interactive Weather Map New forecast layout! Learn more

10-Day Weather Forecast

Advertisements
Track Severe Weather on mobile